Time;durP1;ratioP1;P1;durP2;ratioP2;P2;SDS_P1;SDS_P2;PMS_P1;PMS_P2;Temp;Humidity;BMP_temperature;BMP_pressure;BME280_temperature;BME280_humidity;BME280_pressure;Samples;Min_cycle;Max_cycle;Signal;HPM_P1;HPM_P2
2023/01/07 00:00:01;;;;;;;14.27;12.80;;;;;;;;;;5035570;28;20554;-67
2023/01/07 00:02:28;;;;;;;15.80;12.67;;;;;;;;;;5037477;28;20442;-67
2023/01/07 00:04:55;;;;;;;14.93;13.37;;;;;;;;;;5037310;28;20446;-67
2023/01/07 00:07:23;;;;;;;14.50;12.33;;;;;;;;;;5036865;28;20970;-68
2023/01/07 00:09:50;;;;;;;12.30;11.00;;;;;;;;;;5037407;28;20800;-67
2023/01/07 00:12:18;;;;;;;14.40;11.53;;;;;;;;;;5037374;28;20459;-67
2023/01/07 00:14:46;;;;;;;13.40;10.63;;;;;;;;;;5036788;28;20489;-67
2023/01/07 00:17:13;;;;;;;13.43;11.07;;;;;;;;;;5037039;28;20517;-67
2023/01/07 00:19:40;;;;;;;17.10;10.53;;;;;;;;;;5037019;28;20447;-68
2023/01/07 00:22:07;;;;;;;12.83;10.17;;;;;;;;;;5036564;28;20525;-67
2023/01/07 00:24:35;;;;;;;10.87;9.77;;;;;;;;;;5036620;28;20546;-68
2023/01/07 00:27:02;;;;;;;12.20;9.93;;;;;;;;;;5036487;28;20443;-68
2023/01/07 00:29:30;;;;;;;10.50;8.90;;;;;;;;;;5036884;28;20878;-67
2023/01/07 00:31:57;;;;;;;11.43;10.23;;;;;;;;;;5036672;28;20447;-67
2023/01/07 00:34:25;;;;;;;9.97;9.00;;;;;;;;;;5036990;28;20454;-67
2023/01/07 00:37:16;;;;;;;10.67;8.73;;;;;;;;;;5036611;28;20473;-67
2023/01/07 00:39:39;;;;;;;10.80;8.00;;;;;;;;;;5036177;28;20452;-67
2023/01/07 00:44:53;;;;;;;9.67;8.50;;;;;;;;;;5036309;28;20470;-67
2023/01/07 00:47:20;;;;;;;10.70;8.83;;;;;;;;;;5036457;28;20443;-67
2023/01/07 00:49:47;;;;;;;12.63;9.00;;;;;;;;;;5036280;28;20448;-67
2023/01/07 00:52:14;;;;;;;10.50;8.97;;;;;;;;;;5035970;28;20538;-67
2023/01/07 00:54:41;;;;;;;10.37;8.90;;;;;;;;;;5036278;28;20836;-68
2023/01/07 00:57:09;;;;;;;12.90;9.80;;;;;;;;;;5035939;28;20928;-67
2023/01/07 00:59:37;;;;;;;11.23;8.70;;;;;;;;;;5036316;28;20446;-67
2023/01/07 01:02:05;;;;;;;11.90;10.20;;;;;;;;;;5036314;28;20453;-67
2023/01/07 01:04:32;;;;;;;13.80;9.87;;;;;;;;;;5035843;28;20438;-67
2023/01/07 01:07:00;;;;;;;11.00;8.37;;;;;;;;;;5036491;28;20452;-67
2023/01/07 01:09:27;;;;;;;11.27;9.30;;;;;;;;;;5035977;28;20448;-67
2023/01/07 01:11:54;;;;;;;9.07;8.17;;;;;;;;;;5035398;28;20480;-67
2023/01/07 01:14:21;;;;;;;12.70;8.00;;;;;;;;;;5035903;28;20791;-67
2023/01/07 01:16:48;;;;;;;8.67;7.60;;;;;;;;;;5035883;28;20459;-67
2023/01/07 01:19:17;;;;;;;8.73;7.80;;;;;;;;;;5036306;28;20797;-67
2023/01/07 01:21:44;;;;;;;9.40;8.00;;;;;;;;;;5035876;28;20543;-67
2023/01/07 01:24:12;;;;;;;7.90;7.20;;;;;;;;;;5035763;28;20454;-67
2023/01/07 01:26:39;;;;;;;7.90;7.20;;;;;;;;;;5036462;28;20470;-67
2023/01/07 01:29:06;;;;;;;8.20;7.20;;;;;;;;;;5035646;28;20880;-68
2023/01/07 01:31:33;;;;;;;7.87;6.60;;;;;;;;;;5035630;28;20447;-67
2023/01/07 01:34:00;;;;;;;7.67;6.57;;;;;;;;;;5035628;28;20532;-68
2023/01/07 01:36:29;;;;;;;7.23;6.40;;;;;;;;;;5035503;28;20482;-68
2023/01/07 01:38:56;;;;;;;6.40;5.90;;;;;;;;;;5035462;28;20442;-67
2023/01/07 01:41:24;;;;;;;7.70;6.20;;;;;;;;;;5035880;28;20458;-68
2023/01/07 01:43:51;;;;;;;6.37;5.77;;;;;;;;;;5035070;28;20458;-68
2023/01/07 01:46:20;;;;;;;6.80;6.10;;;;;;;;;;5035728;28;20448;-68
2023/01/07 01:48:49;;;;;;;5.17;4.67;;;;;;;;;;5034920;28;20440;-68
2023/01/07 01:51:18;;;;;;;8.30;5.77;;;;;;;;;;5035762;28;20439;-68
2023/01/07 01:53:46;;;;;;;7.57;5.60;;;;;;;;;;5035364;28;20531;-67
2023/01/07 01:56:15;;;;;;;7.30;5.50;;;;;;;;;;5034819;28;20984;-68
2023/01/07 01:58:43;;;;;;;7.70;4.80;;;;;;;;;;5034763;28;20447;-68
2023/01/07 02:01:11;;;;;;;6.10;5.50;;;;;;;;;;5035128;28;20471;-67
2023/01/07 02:03:38;;;;;;;8.30;5.03;;;;;;;;;;5034699;28;20440;-68
2023/01/07 02:06:06;;;;;;;5.40;4.93;;;;;;;;;;5035064;28;20804;-68
2023/01/07 02:08:34;;;;;;;5.47;4.97;;;;;;;;;;5034876;28;20528;-68
2023/01/07 02:11:08;;;;;;;5.77;4.90;;;;;;;;;;5034930;28;20473;-68
2023/01/07 02:13:39;;;;;;;7.67;5.10;;;;;;;;;;5034956;28;20437;-68
2023/01/07 02:16:12;;;;;;;6.40;4.50;;;;;;;;;;5034967;28;20480;-67
2023/01/07 02:18:46;;;;;;;6.43;5.30;;;;;;;;;;5034451;28;20432;-68
2023/01/07 02:21:21;;;;;;;9.43;4.50;;;;;;;;;;5034884;28;20432;-68
2023/01/07 02:24:15;;;;;;;5.30;4.83;;;;;;;;;;5034476;28;20443;-68
2023/01/07 02:27:15;;;;;;;7.23;5.10;;;;;;;;;;5034378;28;21012;-67
2023/01/07 02:30:00;;;;;;;4.40;4.00;;;;;;;;;;5034603;28;20446;-68
2023/01/07 02:32:36;;;;;;;5.20;4.70;;;;;;;;;;5034872;28;20782;-68
2023/01/07 02:35:10;;;;;;;5.00;4.50;;;;;;;;;;5034414;28;20453;-68
2023/01/07 02:37:44;;;;;;;4.37;3.90;;;;;;;;;;5034211;28;20487;-68
2023/01/07 02:40:15;;;;;;;8.40;4.00;;;;;;;;;;5034439;28;20523;-68
2023/01/07 02:42:47;;;;;;;4.57;4.13;;;;;;;;;;5034371;28;20445;-68
2023/01/07 02:45:18;;;;;;;4.70;4.30;;;;;;;;;;5033918;28;20447;-68
2023/01/07 02:47:48;;;;;;;4.67;3.90;;;;;;;;;;5034472;28;20441;-68
2023/01/07 02:50:15;;;;;;;4.60;4.20;;;;;;;;;;5034144;28;20440;-68
2023/01/07 02:52:42;;;;;;;3.77;3.47;;;;;;;;;;5034667;28;20446;-68
2023/01/07 02:55:11;;;;;;;3.83;3.50;;;;;;;;;;5033931;28;20451;-68
2023/01/07 02:57:56;;;;;;;4.70;4.30;;;;;;;;;;5034013;28;20789;-68
2023/01/07 03:00:30;;;;;;;3.80;3.50;;;;;;;;;;5033848;28;20449;-68
2023/01/07 03:03:04;;;;;;;4.30;4.00;;;;;;;;;;5034430;28;20435;-68
2023/01/07 03:05:49;;;;;;;9.63;3.33;;;;;;;;;;5034309;28;20439;-68
2023/01/07 03:08:24;;;;;;;3.57;3.27;;;;;;;;;;5033619;28;20439;-68
2023/01/07 03:10:54;;;;;;;7.20;4.03;;;;;;;;;;5033604;28;20487;-68
2023/01/07 03:13:24;;;;;;;4.70;3.83;;;;;;;;;;5033536;28;20445;-68
2023/01/07 03:15:54;;;;;;;3.67;3.33;;;;;;;;;;5033410;28;20575;-68
2023/01/07 03:18:25;;;;;;;3.63;3.37;;;;;;;;;;5033690;28;20444;-68
2023/01/07 03:20:55;;;;;;;4.37;3.97;;;;;;;;;;5034015;28;20523;-68
2023/01/07 03:23:24;;;;;;;5.00;3.43;;;;;;;;;;5033351;28;20430;-69
2023/01/07 03:25:52;;;;;;;4.30;3.50;;;;;;;;;;5033352;28;20950;-68
2023/01/07 03:28:23;;;;;;;3.53;3.23;;;;;;;;;;5033619;28;20533;-68
2023/01/07 03:30:51;;;;;;;3.40;3.20;;;;;;;;;;5033249;28;20538;-68
2023/01/07 03:33:21;;;;;;;3.47;3.17;;;;;;;;;;5033226;28;20463;-68
2023/01/07 03:35:52;;;;;;;3.10;2.90;;;;;;;;;;5033409;28;20480;-68
2023/01/07 03:38:22;;;;;;;3.67;3.37;;;;;;;;;;5033566;28;20440;-68
2023/01/07 03:40:49;;;;;;;3.77;2.40;;;;;;;;;;5033705;28;20813;-68
2023/01/07 03:43:18;;;;;;;3.60;2.80;;;;;;;;;;5033507;28;20451;-68
2023/01/07 03:45:46;;;;;;;2.67;2.47;;;;;;;;;;5033050;28;20459;-68
2023/01/07 03:48:13;;;;;;;5.50;2.63;;;;;;;;;;5033708;28;20442;-67
2023/01/07 03:50:40;;;;;;;4.20;2.33;;;;;;;;;;5033056;28;20958;-67
2023/01/07 03:53:09;;;;;;;2.70;2.50;;;;;;;;;;5033084;28;20455;-67
2023/01/07 03:55:36;;;;;;;3.93;2.80;;;;;;;;;;5033334;28;20483;-68
2023/01/07 03:58:03;;;;;;;4.80;2.50;;;;;;;;;;5033260;28;20444;-68
2023/01/07 04:00:31;;;;;;;3.03;2.83;;;;;;;;;;5032927;28;20452;-68
2023/01/07 04:02:58;;;;;;;4.07;3.03;;;;;;;;;;5033301;28;20444;-68
2023/01/07 04:05:25;;;;;;;4.27;3.03;;;;;;;;;;5033352;28;20443;-68
2023/01/07 04:07:52;;;;;;;3.33;3.10;;;;;;;;;;5033439;28;20452;-68
2023/01/07 04:10:21;;;;;;;3.40;2.67;;;;;;;;;;5032811;28;20479;-68
2023/01/07 04:12:48;;;;;;;3.27;2.97;;;;;;;;;;5032848;28;20950;-68
2023/01/07 04:15:15;;;;;;;3.77;3.33;;;;;;;;;;5033383;28;20450;-68
2023/01/07 04:17:42;;;;;;;3.17;2.80;;;;;;;;;;5032708;28;21021;-68
2023/01/07 04:20:11;;;;;;;3.10;2.77;;;;;;;;;;5032750;28;20960;-68
2023/01/07 04:22:38;;;;;;;5.80;2.80;;;;;;;;;;5033116;28;20453;-67
2023/01/07 04:25:05;;;;;;;5.57;2.90;;;;;;;;;;5033411;28;20439;-68
2023/01/07 04:27:34;;;;;;;3.70;3.00;;;;;;;;;;5032701;28;20462;-68
2023/01/07 04:30:01;;;;;;;4.07;3.43;;;;;;;;;;5032876;28;20505;-68
2023/01/07 04:32:28;;;;;;;3.20;2.60;;;;;;;;;;5032663;28;20444;-68
2023/01/07 04:34:56;;;;;;;2.90;2.70;;;;;;;;;;5032628;28;20443;-68
2023/01/07 04:37:23;;;;;;;3.30;3.00;;;;;;;;;;5032550;28;20490;-68
2023/01/07 04:39:50;;;;;;;3.90;2.60;;;;;;;;;;5032864;28;20801;-68
2023/01/07 04:42:17;;;;;;;3.70;2.70;;;;;;;;;;5033291;28;20446;-68
2023/01/07 04:44:46;;;;;;;3.40;3.10;;;;;;;;;;5032478;28;20540;-68
2023/01/07 04:47:13;;;;;;;2.67;2.43;;;;;;;;;;5035947;28;20482;-68
2023/01/07 04:49:40;;;;;;;2.63;2.43;;;;;;;;;;5036121;28;20967;-68
2023/01/07 04:52:08;;;;;;;3.00;2.70;;;;;;;;;;5036125;28;20921;-68
2023/01/07 04:54:35;;;;;;;2.60;2.40;;;;;;;;;;5036435;28;20436;-69
2023/01/07 04:57:03;;;;;;;2.73;2.53;;;;;;;;;;5036183;28;20487;-68
2023/01/07 04:59:30;;;;;;;3.17;2.87;;;;;;;;;;5036304;28;20443;-68
2023/01/07 05:01:58;;;;;;;2.73;2.53;;;;;;;;;;5035889;28;20442;-67
2023/01/07 05:04:26;;;;;;;2.20;2.00;;;;;;;;;;5036227;28;20808;-67
2023/01/07 05:06:53;;;;;;;2.57;2.37;;;;;;;;;;5035781;28;20448;-67
2023/01/07 05:09:20;;;;;;;3.00;2.50;;;;;;;;;;5035953;28;20534;-67
2023/01/07 05:11:47;;;;;;;3.47;2.60;;;;;;;;;;5036088;28;20543;-67
2023/01/07 05:14:14;;;;;;;2.87;2.40;;;;;;;;;;5036076;28;20450;-67
2023/01/07 05:16:41;;;;;;;2.97;2.43;;;;;;;;;;5035532;28;20475;-67
2023/01/07 05:19:11;;;;;;;3.90;3.47;;;;;;;;;;5035665;28;20449;-67
2023/01/07 05:21:38;;;;;;;3.33;2.70;;;;;;;;;;5035432;28;20442;-67
2023/01/07 05:24:05;;;;;;;6.70;3.23;;;;;;;;;;5035705;28;20447;-67
2023/01/07 05:26:32;;;;;;;3.00;2.67;;;;;;;;;;5035742;28;20446;-67
2023/01/07 05:29:00;;;;;;;4.20;2.90;;;;;;;;;;5035487;28;20438;-67
2023/01/07 05:31:27;;;;;;;3.40;2.40;;;;;;;;;;5035276;28;20454;-67
2023/01/07 05:33:54;;;;;;;3.17;2.60;;;;;;;;;;5035384;28;20443;-68
2023/01/07 05:36:22;;;;;;;2.87;2.10;;;;;;;;;;5035213;28;20484;-67
2023/01/07 05:38:50;;;;;;;3.10;2.60;;;;;;;;;;5036046;28;20443;-67
2023/01/07 05:41:17;;;;;;;2.80;2.60;;;;;;;;;;5035760;28;20446;-67
2023/01/07 05:43:44;;;;;;;3.60;2.93;;;;;;;;;;5035929;28;20454;-68
2023/01/07 05:46:11;;;;;;;2.80;2.60;;;;;;;;;;5035077;28;20538;-67
2023/01/07 05:48:38;;;;;;;3.00;2.73;;;;;;;;;;5035281;28;20449;-67
2023/01/07 05:51:06;;;;;;;2.43;2.33;;;;;;;;;;5035251;28;20446;-67
2023/01/07 05:53:34;;;;;;;3.37;3.07;;;;;;;;;;5035313;28;20457;-67
2023/01/07 05:56:02;;;;;;;3.33;2.50;;;;;;;;;;5034801;28;20447;-66
2023/01/07 05:58:29;;;;;;;3.40;2.70;;;;;;;;;;5033822;28;20447;-66
2023/01/07 06:00:56;;;;;;;2.63;2.30;;;;;;;;;;5035219;28;20767;-66
2023/01/07 06:03:23;;;;;;;2.53;2.33;;;;;;;;;;5035167;28;20446;-67
2023/01/07 06:05:51;;;;;;;2.50;2.30;;;;;;;;;;5034687;28;20462;-67
2023/01/07 06:08:18;;;;;;;3.10;2.23;;;;;;;;;;5033072;28;20455;-67
2023/01/07 06:10:47;;;;;;;2.37;2.17;;;;;;;;;;5033643;28;20475;-67
2023/01/07 06:13:14;;;;;;;2.90;2.40;;;;;;;;;;5034656;28;20444;-67
2023/01/07 06:15:41;;;;;;;3.70;2.50;;;;;;;;;;5034298;28;20439;-67
2023/01/07 06:18:08;;;;;;;2.30;2.20;;;;;;;;;;5034317;28;20956;-67
2023/01/07 06:20:36;;;;;;;3.17;2.40;;;;;;;;;;5034607;28;20500;-67
2023/01/07 06:23:03;;;;;;;2.90;2.60;;;;;;;;;;5034753;28;20446;-67
2023/01/07 06:25:31;;;;;;;2.67;2.47;;;;;;;;;;5034656;28;20450;-66
2023/01/07 06:27:59;;;;;;;2.77;2.57;;;;;;;;;;5034603;28;20446;-67
2023/01/07 06:30:26;;;;;;;3.13;2.83;;;;;;;;;;5034470;28;20542;-67
2023/01/07 06:32:54;;;;;;;4.80;2.80;;;;;;;;;;5034414;28;20446;-67
2023/01/07 06:35:22;;;;;;;5.53;3.53;;;;;;;;;;5034311;28;20954;-66
2023/01/07 06:37:49;;;;;;;3.43;3.23;;;;;;;;;;5033976;28;20505;-67
2023/01/07 06:40:16;;;;;;;3.53;3.23;;;;;;;;;;5034155;28;20450;-67
2023/01/07 06:42:43;;;;;;;3.37;2.90;;;;;;;;;;5034160;28;20439;-67
2023/01/07 06:45:12;;;;;;;3.10;2.80;;;;;;;;;;5033941;28;20442;-67
2023/01/07 06:47:39;;;;;;;3.40;2.80;;;;;;;;;;5033923;28;20457;-67
2023/01/07 06:50:07;;;;;;;4.27;3.30;;;;;;;;;;5033827;28;20932;-67
2023/01/07 06:52:34;;;;;;;5.60;3.40;;;;;;;;;;5034152;28;20441;-67
2023/01/07 06:55:02;;;;;;;2.80;2.60;;;;;;;;;;5043565;28;20928;-66
2023/01/07 06:57:29;;;;;;;3.07;2.70;;;;;;;;;;5053775;28;20563;-67
2023/01/07 06:59:56;;;;;;;5.73;2.60;;;;;;;;;;5053760;28;20442;-67
2023/01/07 07:02:25;;;;;;;2.27;2.07;;;;;;;;;;5053729;28;20443;-67
2023/01/07 07:04:52;;;;;;;3.13;2.83;;;;;;;;;;5053831;28;20439;-66
2023/01/07 07:07:20;;;;;;;2.47;2.27;;;;;;;;;;5040269;28;20541;-67
2023/01/07 07:09:49;;;;;;;3.47;3.00;;;;;;;;;;5032974;28;20454;-67
2023/01/07 07:12:18;;;;;;;2.90;2.70;;;;;;;;;;5033694;28;20441;-67
2023/01/07 07:14:45;;;;;;;3.40;3.10;;;;;;;;;;5034342;28;20794;-67
2023/01/07 07:17:12;;;;;;;3.57;3.27;;;;;;;;;;5033181;28;20470;-67
2023/01/07 07:19:41;;;;;;;3.70;3.50;;;;;;;;;;5033590;28;20443;-67
2023/01/07 07:22:08;;;;;;;4.73;3.73;;;;;;;;;;5033363;28;20442;-67
2023/01/07 07:24:35;;;;;;;3.47;3.10;;;;;;;;;;5033335;28;20954;-67
2023/01/07 07:27:02;;;;;;;4.67;4.13;;;;;;;;;;5033214;28;20966;-68
2023/01/07 07:29:30;;;;;;;4.30;3.90;;;;;;;;;;5033606;28;20434;-67
2023/01/07 07:31:57;;;;;;;4.03;3.67;;;;;;;;;;5033455;28;20772;-67
2023/01/07 07:34:24;;;;;;;3.87;3.57;;;;;;;;;;5033379;28;20521;-67
2023/01/07 07:36:52;;;;;;;5.07;4.17;;;;;;;;;;5033158;28;20479;-67
2023/01/07 07:39:20;;;;;;;3.43;3.13;;;;;;;;;;5032880;28;20452;-68
2023/01/07 07:41:47;;;;;;;4.67;3.63;;;;;;;;;;5033553;28;20454;-68
2023/01/07 07:44:14;;;;;;;3.70;3.40;;;;;;;;;;5033276;28;20435;-68
2023/01/07 07:46:41;;;;;;;7.87;3.63;;;;;;;;;;5033311;28;20447;-68
2023/01/07 07:49:09;;;;;;;5.03;3.47;;;;;;;;;;5032706;28;20450;-68
2023/01/07 07:51:36;;;;;;;3.00;2.80;;;;;;;;;;5032792;28;20947;-68
2023/01/07 07:54:04;;;;;;;3.73;3.43;;;;;;;;;;5033031;28;20552;-67
2023/01/07 07:56:32;;;;;;;3.83;2.97;;;;;;;;;;5033374;28;20454;-68
2023/01/07 07:58:59;;;;;;;4.33;3.13;;;;;;;;;;5033196;28;20482;-68
2023/01/07 08:01:26;;;;;;;4.07;3.63;;;;;;;;;;5033073;28;20485;-67
2023/01/07 08:03:53;;;;;;;4.90;4.20;;;;;;;;;;5033124;28;20449;-67
2023/01/07 08:06:20;;;;;;;5.13;4.63;;;;;;;;;;5032912;28;20457;-67
2023/01/07 08:08:47;;;;;;;4.07;3.40;;;;;;;;;;5033218;28;20447;-68
2023/01/07 08:11:16;;;;;;;4.13;3.73;;;;;;;;;;5032837;28;20479;-67
2023/01/07 08:13:43;;;;;;;3.33;3.03;;;;;;;;;;5033086;28;20524;-67
2023/01/07 08:16:10;;;;;;;3.57;3.27;;;;;;;;;;5032598;28;20937;-68
2023/01/07 08:18:38;;;;;;;2.73;2.50;;;;;;;;;;5032660;28;20485;-68
2023/01/07 08:21:06;;;;;;;3.80;2.30;;;;;;;;;;5034327;28;20442;-68
2023/01/07 08:23:33;;;;;;;3.43;3.13;;;;;;;;;;5036531;28;20444;-68
2023/01/07 08:26:01;;;;;;;3.20;2.90;;;;;;;;;;5036839;28;20500;-68
2023/01/07 08:28:30;;;;;;;3.20;2.47;;;;;;;;;;5036392;28;20948;-68
2023/01/07 08:30:57;;;;;;;2.83;2.63;;;;;;;;;;5036769;28;20453;-68
2023/01/07 08:33:24;;;;;;;2.53;2.33;;;;;;;;;;5036854;28;20442;-68
2023/01/07 08:35:52;;;;;;;2.60;2.40;;;;;;;;;;5036305;28;20538;-68
2023/01/07 08:38:19;;;;;;;4.63;2.93;;;;;;;;;;5036036;28;20506;-68
2023/01/07 08:40:46;;;;;;;4.70;2.80;;;;;;;;;;5036607;28;20450;-68
2023/01/07 08:43:13;;;;;;;4.30;2.63;;;;;;;;;;5036541;28;20444;-68
2023/01/07 08:45:43;;;;;;;2.33;2.13;;;;;;;;;;5036811;28;20447;-68
2023/01/07 08:48:10;;;;;;;3.57;2.93;;;;;;;;;;5036479;28;20455;-68
2023/01/07 08:50:37;;;;;;;2.60;2.40;;;;;;;;;;5036243;28;20447;-68
2023/01/07 08:53:05;;;;;;;3.20;2.83;;;;;;;;;;5036743;28;20504;-68
2023/01/07 08:55:32;;;;;;;3.00;2.80;;;;;;;;;;5036484;28;20442;-69
2023/01/07 08:57:59;;;;;;;3.77;3.40;;;;;;;;;;5036180;28;20572;-68
2023/01/07 09:00:26;;;;;;;3.63;3.33;;;;;;;;;;5036890;28;20898;-68
2023/01/07 09:02:55;;;;;;;3.23;2.93;;;;;;;;;;5035984;28;20448;-67
2023/01/07 09:05:23;;;;;;;4.20;3.90;;;;;;;;;;5036136;28;20756;-67
2023/01/07 09:07:52;;;;;;;3.43;3.10;;;;;;;;;;5036063;28;20452;-67
2023/01/07 09:10:19;;;;;;;2.90;2.70;;;;;;;;;;5035504;28;20475;-67
2023/01/07 09:12:46;;;;;;;3.67;3.33;;;;;;;;;;5035671;28;20444;-66
2023/01/07 09:15:13;;;;;;;3.63;3.33;;;;;;;;;;5035918;28;21008;-67
2023/01/07 09:17:41;;;;;;;5.83;3.50;;;;;;;;;;5035492;28;20565;-67
2023/01/07 09:20:10;;;;;;;3.53;3.23;;;;;;;;;;5035946;28;20526;-66
2023/01/07 09:22:37;;;;;;;3.90;3.40;;;;;;;;;;5035479;28;20442;-68
2023/01/07 09:25:05;;;;;;;3.77;3.47;;;;;;;;;;5035799;28;20439;-67
2023/01/07 09:27:33;;;;;;;4.83;3.30;;;;;;;;;;5036363;28;20534;-67
2023/01/07 09:30:00;;;;;;;7.00;3.40;;;;;;;;;;5035472;28;21012;-67
2023/01/07 09:32:28;;;;;;;4.53;4.00;;;;;;;;;;5035653;28;20467;-68
2023/01/07 09:34:55;;;;;;;3.57;3.17;;;;;;;;;;5035477;28;20980;-66
2023/01/07 09:37:24;;;;;;;3.30;3.00;;;;;;;;;;5035595;28;20525;-65
2023/01/07 09:39:51;;;;;;;4.20;3.27;;;;;;;;;;5035573;28;20446;-65
2023/01/07 09:42:23;;;;;;;2.80;2.60;;;;;;;;;;5035525;28;20459;-66
2023/01/07 09:44:58;;;;;;;3.20;2.70;;;;;;;;;;5035619;28;20792;-65
2023/01/07 09:47:26;;;;;;;3.30;2.87;;;;;;;;;;5035388;28;20911;-68
2023/01/07 09:49:56;;;;;;;3.20;2.90;;;;;;;;;;5035342;28;20799;-66
2023/01/07 09:52:26;;;;;;;2.67;2.47;;;;;;;;;;5035353;28;20440;-65
2023/01/07 09:54:57;;;;;;;2.63;2.30;;;;;;;;;;5035441;28;20444;-66
2023/01/07 09:57:26;;;;;;;2.50;2.27;;;;;;;;;;5035654;28;20906;-66
2023/01/07 09:59:53;;;;;;;2.00;1.80;;;;;;;;;;5035460;28;20961;-67
2023/01/07 10:02:28;;;;;;;2.87;2.50;;;;;;;;;;5035212;28;20443;-67
2023/01/07 10:04:58;;;;;;;1.87;1.77;;;;;;;;;;5035133;28;20434;-67
2023/01/07 10:07:30;;;;;;;2.23;1.60;;;;;;;;;;5035888;28;20451;-67
2023/01/07 10:10:04;;;;;;;3.57;2.00;;;;;;;;;;5034852;28;20577;-68
2023/01/07 10:12:34;;;;;;;5.90;1.90;;;;;;;;;;5035147;28;20432;-66
2023/01/07 10:15:06;;;;;;;1.93;1.60;;;;;;;;;;5034531;28;20441;-65
2023/01/07 10:17:41;;;;;;;3.90;1.80;;;;;;;;;;5034534;28;20433;-65
2023/01/07 10:20:13;;;;;;;2.50;1.70;;;;;;;;;;5034490;28;20433;-66
2023/01/07 10:22:46;;;;;;;1.93;1.83;;;;;;;;;;5034969;28;20451;-68
2023/01/07 10:25:16;;;;;;;2.20;2.00;;;;;;;;;;5034898;28;20432;-68
2023/01/07 10:27:45;;;;;;;3.40;2.40;;;;;;;;;;5034424;28;20440;-67
2023/01/07 10:30:13;;;;;;;1.70;1.60;;;;;;;;;;5034593;28;20531;-68
2023/01/07 10:32:42;;;;;;;3.20;1.80;;;;;;;;;;5034749;28;20793;-68
2023/01/07 10:35:16;;;;;;;2.70;1.60;;;;;;;;;;5034140;28;20445;-66
2023/01/07 10:37:44;;;;;;;1.90;1.70;;;;;;;;;;5035056;28;20514;-66
2023/01/07 10:40:25;;;;;;;4.37;1.90;;;;;;;;;;5034281;28;20452;-68
2023/01/07 10:42:56;;;;;;;1.87;1.77;;;;;;;;;;5034148;28;20429;-66
2023/01/07 10:45:28;;;;;;;3.10;1.57;;;;;;;;;;5033977;28;20453;-66
2023/01/07 10:48:02;;;;;;;1.70;1.60;;;;;;;;;;5034684;28;20437;-65
2023/01/07 10:50:38;;;;;;;2.00;1.80;;;;;;;;;;5033975;28;20440;-67
2023/01/07 10:53:13;;;;;;;2.50;1.80;;;;;;;;;;5034032;28;20434;-67
2023/01/07 10:55:49;;;;;;;1.83;1.73;;;;;;;;;;5033800;28;20425;-66
2023/01/07 10:58:17;;;;;;;1.60;1.50;;;;;;;;;;5033814;28;20474;-68
2023/01/07 11:00:46;;;;;;;2.00;1.80;;;;;;;;;;5033953;28;20453;-68
2023/01/07 11:03:17;;;;;;;1.73;1.63;;;;;;;;;;5033783;28;20444;-67
2023/01/07 11:05:45;;;;;;;1.50;1.40;;;;;;;;;;5034009;28;20519;-67
2023/01/07 11:08:16;;;;;;;4.03;2.30;;;;;;;;;;5034342;28;20454;-66
2023/01/07 11:10:43;;;;;;;2.33;1.83;;;;;;;;;;5033458;28;20554;-67
2023/01/07 11:13:14;;;;;;;1.70;1.60;;;;;;;;;;5033873;28;20438;-67
2023/01/07 11:15:44;;;;;;;1.93;1.70;;;;;;;;;;5034089;28;20446;-66
2023/01/07 11:18:13;;;;;;;2.00;1.77;;;;;;;;;;5032911;28;20476;-67
2023/01/07 11:20:44;;;;;;;1.50;1.40;;;;;;;;;;5032972;28;20531;-67
2023/01/07 11:23:20;;;;;;;1.77;1.67;;;;;;;;;;5032833;28;20447;-67
2023/01/07 11:25:47;;;;;;;1.60;1.50;;;;;;;;;;5033570;28;20444;-67
2023/01/07 11:28:18;;;;;;;1.80;1.70;;;;;;;;;;5033483;28;20447;-67
2023/01/07 11:30:45;;;;;;;1.87;1.77;;;;;;;;;;5033433;28;20435;-67
2023/01/07 11:33:20;;;;;;;1.80;1.70;;;;;;;;;;5033081;28;20934;-68
2023/01/07 11:35:51;;;;;;;2.07;1.50;;;;;;;;;;5033718;28;20467;-67
2023/01/07 11:38:31;;;;;;;2.10;2.00;;;;;;;;;;5033396;28;20474;-67
2023/01/07 11:40:59;;;;;;;1.80;1.70;;;;;;;;;;5033133;28;20455;-67
2023/01/07 11:43:31;;;;;;;3.03;1.80;;;;;;;;;;5032976;28;20454;-67
2023/01/07 11:46:00;;;;;;;3.20;2.10;;;;;;;;;;5033387;28;20785;-67
2023/01/07 11:48:29;;;;;;;2.30;2.10;;;;;;;;;;5032928;28;20449;-68
2023/01/07 11:50:58;;;;;;;1.93;1.83;;;;;;;;;;5033180;28;20537;-67
2023/01/07 11:53:32;;;;;;;1.93;1.83;;;;;;;;;;5033208;28;20526;-67
2023/01/07 11:56:01;;;;;;;4.83;2.10;;;;;;;;;;5035464;28;20523;-67
2023/01/07 11:58:29;;;;;;;2.70;1.70;;;;;;;;;;5037024;28;21003;-67
2023/01/07 12:01:03;;;;;;;2.60;2.40;;;;;;;;;;5036968;28;20442;-67
2023/01/07 12:03:31;;;;;;;2.43;2.23;;;;;;;;;;5036930;28;20917;-67
2023/01/07 12:05:59;;;;;;;2.50;2.30;;;;;;;;;;5037459;28;20466;-68
2023/01/07 12:08:26;;;;;;;2.23;2.03;;;;;;;;;;5036760;28;20949;-69
2023/01/07 12:10:59;;;;;;;2.97;2.50;;;;;;;;;;5036773;28;20474;-67
2023/01/07 12:13:27;;;;;;;2.60;2.30;;;;;;;;;;5036657;28;20521;-67
2023/01/07 12:15:57;;;;;;;3.17;2.23;;;;;;;;;;5036947;28;20876;-67
2023/01/07 12:18:48;;;;;;;3.37;3.00;;;;;;;;;;5036540;28;20478;-67
2023/01/07 12:21:36;;;;;;;3.03;2.73;;;;;;;;;;5026684;28;20450;-68
2023/01/07 12:24:09;;;;;;;3.20;2.90;;;;;;;;;;5033628;28;20463;-67
2023/01/07 12:26:41;;;;;;;2.30;2.00;;;;;;;;;;5036525;28;20442;-67
2023/01/07 12:29:15;;;;;;;2.73;2.63;;;;;;;;;;5036510;28;20458;-67
2023/01/07 12:31:50;;;;;;;2.57;2.37;;;;;;;;;;5037085;28;20431;-67
2023/01/07 12:34:22;;;;;;;2.30;2.10;;;;;;;;;;5036777;28;20443;-67
2023/01/07 12:36:53;;;;;;;2.53;1.97;;;;;;;;;;5036806;28;20431;-67
2023/01/07 12:39:24;;;;;;;3.53;2.63;;;;;;;;;;5036498;28;20502;-67
2023/01/07 12:41:56;;;;;;;2.90;2.67;;;;;;;;;;5036262;28;20432;-67
2023/01/07 12:44:24;;;;;;;2.30;2.10;;;;;;;;;;5036929;28;20434;-67
2023/01/07 12:46:58;;;;;;;2.80;2.33;;;;;;;;;;5036434;28;20442;-67
2023/01/07 12:49:28;;;;;;;5.87;2.37;;;;;;;;;;5035811;28;20440;-67
2023/01/07 12:51:58;;;;;;;5.33;2.67;;;;;;;;;;5036702;28;20441;-67
2023/01/07 12:54:30;;;;;;;2.47;2.20;;;;;;;;;;5036054;28;20456;-67
2023/01/07 12:57:00;;;;;;;2.00;1.90;;;;;;;;;;5036330;28;20436;-67
2023/01/07 12:59:32;;;;;;;2.00;1.90;;;;;;;;;;5035818;28;21002;-68
2023/01/07 13:02:06;;;;;;;2.00;1.80;;;;;;;;;;5035955;28;20933;-68
2023/01/07 13:04:39;;;;;;;4.23;2.07;;;;;;;;;;5036427;28;20441;-67
2023/01/07 13:07:10;;;;;;;1.70;1.60;;;;;;;;;;5035302;28;20431;-66
2023/01/07 13:09:41;;;;;;;2.00;1.90;;;;;;;;;;5035488;28;20456;-66
2023/01/07 13:14:59;;;;;;;2.10;1.83;;;;;;;;;;5035815;28;20923;-67
2023/01/07 13:17:27;;;;;;;2.20;2.00;;;;;;;;;;5035649;28;20928;-67
2023/01/07 13:19:56;;;;;;;2.00;1.90;;;;;;;;;;5035890;28;20805;-67
2023/01/07 13:22:28;;;;;;;1.83;1.70;;;;;;;;;;5035665;28;20435;-67
2023/01/07 13:25:02;;;;;;;1.80;1.70;;;;;;;;;;5036051;28;20434;-66
2023/01/07 13:27:36;;;;;;;2.03;1.90;;;;;;;;;;5035529;28;20434;-67
2023/01/07 13:30:11;;;;;;;3.30;2.17;;;;;;;;;;5035380;28;20445;-66
2023/01/07 13:32:47;;;;;;;2.40;1.80;;;;;;;;;;5035276;28;20526;-67
2023/01/07 13:35:23;;;;;;;2.17;1.97;;;;;;;;;;5035597;28;20463;-67
2023/01/07 13:37:57;;;;;;;2.00;1.90;;;;;;;;;;5035314;28;20858;-67
2023/01/07 13:40:37;;;;;;;1.87;1.67;;;;;;;;;;5035397;28;20491;-66
2023/01/07 13:43:12;;;;;;;3.67;1.83;;;;;;;;;;5035405;28;20456;-67
2023/01/07 13:45:41;;;;;;;2.20;2.00;;;;;;;;;;5035346;28;20432;-67
2023/01/07 13:48:24;;;;;;;2.40;2.20;;;;;;;;;;5034998;28;20444;-67
2023/01/07 13:50:58;;;;;;;2.67;1.77;;;;;;;;;;5035136;28;20447;-67
2023/01/07 13:53:33;;;;;;;2.40;2.20;;;;;;;;;;5035055;28;20454;-67
2023/01/07 13:56:15;;;;;;;2.17;1.70;;;;;;;;;;5035556;28;20418;-67
2023/01/07 13:58:47;;;;;;;1.90;1.80;;;;;;;;;;5034615;28;20449;-67
2023/01/07 14:01:15;;;;;;;1.80;1.70;;;;;;;;;;5035049;28;20451;-67
2023/01/07 14:03:48;;;;;;;2.00;1.90;;;;;;;;;;5034717;28;20955;-67
2023/01/07 14:06:42;;;;;;;2.20;2.10;;;;;;;;;;5035582;28;20856;-67
2023/01/07 14:09:18;;;;;;;3.00;2.17;;;;;;;;;;5034476;28;20501;-67
2023/01/07 14:11:52;;;;;;;1.63;1.53;;;;;;;;;;5034652;28;20868;-66
2023/01/07 14:14:23;;;;;;;1.90;1.80;;;;;;;;;;5034858;28;20516;-66
2023/01/07 14:16:53;;;;;;;2.10;1.90;;;;;;;;;;5034987;28;20518;-65
2023/01/07 14:19:27;;;;;;;1.83;1.70;;;;;;;;;;5033343;28;20674;-65
2023/01/07 14:22:06;;;;;;;2.60;2.00;;;;;;;;;;5034805;28;20513;-66
2023/01/07 14:24:47;;;;;;;2.20;1.60;;;;;;;;;;5034244;28;20511;-66
2023/01/07 14:27:28;;;;;;;2.10;2.00;;;;;;;;;;5034156;28;20441;-66
2023/01/07 14:30:19;;;;;;;1.80;1.70;;;;;;;;;;5034075;28;20459;-66
2023/01/07 14:32:47;;;;;;;2.40;2.20;;;;;;;;;;5034402;28;20490;-66
2023/01/07 14:35:27;;;;;;;1.80;1.70;;;;;;;;;;5034319;28;20440;-66
2023/01/07 14:37:54;;;;;;;2.03;1.80;;;;;;;;;;5034255;28;20423;-66
2023/01/07 14:40:41;;;;;;;1.70;1.60;;;;;;;;;;5034223;28;20490;-66
2023/01/07 14:43:23;;;;;;;3.10;1.60;;;;;;;;;;5034253;28;20447;-68
2023/01/07 14:45:55;;;;;;;4.03;1.70;;;;;;;;;;5034065;28;20556;-66
2023/01/07 14:48:30;;;;;;;1.90;1.73;;;;;;;;;;5034058;28;20443;-66
2023/01/07 14:51:04;;;;;;;1.77;1.30;;;;;;;;;;5033747;28;20866;-65
2023/01/07 14:53:41;;;;;;;2.63;2.13;;;;;;;;;;5034044;28;20440;-65
2023/01/07 14:56:17;;;;;;;2.10;1.90;;;;;;;;;;5034225;28;20441;-65
2023/01/07 14:59:02;;;;;;;1.70;1.60;;;;;;;;;;5033552;28;20522;-67
2023/01/07 15:01:38;;;;;;;2.27;1.93;;;;;;;;;;5033904;28;20439;-65